Time;durP1;ratioP1;P1;durP2;ratioP2;P2;SDS_P1;SDS_P2;PMS_P1;PMS_P2;Temp;Humidity;BMP_temperature;BMP_pressure;BME280_temperature;BME280_humidity;BME280_pressure;Samples;Min_cycle;Max_cycle;Signal;HPM_P1;HPM_P2
2023/06/04 00:00:30;;;;;;;2.70;1.58;;;;;;;21.06;44.92;102405.00;4988074;28;20903;-87
2023/06/04 00:02:58;;;;;;;2.58;1.48;;;;;;;21.02;44.89;102398.34;4984482;28;20037;-87
2023/06/04 00:05:25;;;;;;;1.75;1.25;;;;;;;21.05;44.65;102406.00;4982416;28;20041;-88
2023/06/04 00:07:52;;;;;;;2.83;1.48;;;;;;;21.24;44.67;102435.97;4977175;28;20030;-87
2023/06/04 00:10:18;;;;;;;3.30;1.73;;;;;;;21.16;44.99;102433.22;4954753;28;20149;-86
2023/06/04 00:12:44;;;;;;;4.30;1.77;;;;;;;21.17;45.03;102441.03;4977299;28;20053;-87
2023/06/04 00:15:10;;;;;;;1.98;1.67;;;;;;;21.14;45.00;102433.38;4955346;28;20033;-87
2023/06/04 00:17:36;;;;;;;1.70;1.60;;;;;;;21.13;44.97;102434.34;4971900;28;20081;-86
2023/06/04 00:20:03;;;;;;;1.77;1.45;;;;;;;21.09;45.21;102433.84;4990506;28;20048;-87
2023/06/04 00:22:28;;;;;;;2.97;1.50;;;;;;;20.71;45.04;102366.06;5005152;28;20041;-86
2023/06/04 00:24:56;;;;;;;2.83;1.52;;;;;;;20.95;44.82;102410.50;5003153;28;20044;-89
2023/06/04 00:27:22;;;;;;;1.80;1.50;;;;;;;21.08;45.12;102440.13;4989287;28;20053;-87
2023/06/04 00:29:48;;;;;;;3.10;1.75;;;;;;;20.76;45.04;102377.03;4984527;28;20097;-89
2023/06/04 00:32:14;;;;;;;2.42;1.80;;;;;;;20.89;45.06;102404.97;4986397;28;20069;-89
2023/06/04 00:34:41;;;;;;;2.13;1.58;;;;;;;20.85;45.23;102398.31;4987574;28;20038;-87
2023/06/04 00:37:07;;;;;;;2.17;1.77;;;;;;;20.98;45.35;102431.38;4976648;28;20056;-87
2023/06/04 00:39:34;;;;;;;2.35;1.50;;;;;;;20.66;45.19;102372.78;4987193;28;20060;-87
2023/06/04 00:42:04;;;;;;;2.63;1.67;;;;;;;20.77;45.30;102399.03;4968662;28;20065;-88
2023/06/04 00:44:30;;;;;;;2.10;1.60;;;;;;;20.98;45.13;102436.69;4989090;28;20137;-87
2023/06/04 00:46:56;;;;;;;1.65;1.50;;;;;;;21.00;45.21;102428.56;5002311;28;20037;-87
2023/06/04 00:49:22;;;;;;;3.35;2.10;;;;;;;20.92;45.23;102424.03;4983008;28;20048;-88
2023/06/04 00:51:48;;;;;;;2.25;1.48;;;;;;;20.69;45.28;102380.44;4971503;28;20092;-87
2023/06/04 00:54:18;;;;;;;3.83;1.80;;;;;;;20.98;45.16;102430.53;4986448;28;20475;-88
2023/06/04 00:56:44;;;;;;;2.25;1.98;;;;;;;20.62;45.56;102374.03;4987278;28;20044;-87
2023/06/04 00:59:10;;;;;;;4.82;2.03;;;;;;;20.78;45.25;102409.47;5011622;28;20037;-87
2023/06/04 01:01:40;;;;;;;1.88;1.40;;;;;;;20.94;45.18;102427.38;4967853;28;20141;-87
2023/06/04 01:04:08;;;;;;;;;;;;;;;20.91;45.43;102430.31;4981898;28;20037;-87
2023/06/04 01:06:43;;;;;;;2.03;1.80;;;;;;;20.78;45.39;102404.19;5002994;28;19925;-86
2023/06/04 01:09:10;;;;;;;3.75;1.75;;;;;;;20.90;45.42;102427.81;5015773;28;20038;-87
2023/06/04 01:11:40;;;;;;;2.72;1.50;;;;;;;20.95;45.40;102428.19;4984925;28;20045;-86
2023/06/04 01:14:08;;;;;;;2.92;1.77;;;;;;;20.78;45.29;102409.47;4994838;28;20030;-87
2023/06/04 01:16:49;;;;;;;3.05;1.75;;;;;;;20.69;45.43;102407.72;4984423;28;20057;-88
2023/06/04 01:19:31;;;;;;;2.10;1.60;;;;;;;20.89;45.36;102434.94;5008307;28;20053;-87
2023/06/04 01:22:03;;;;;;;3.85;1.70;;;;;;;20.79;45.34;102416.44;4983841;28;20045;-86
2023/06/04 01:24:34;;;;;;;3.17;1.60;;;;;;;20.76;45.27;102416.75;4996909;28;20034;-87
2023/06/04 01:27:00;;;;;;;4.25;1.92;;;;;;;20.71;45.32;102408.41;4996534;28;20041;-86
2023/06/04 01:29:30;;;;;;;2.50;1.65;;;;;;;20.80;45.24;102431.34;4970603;28;21531;-87
2023/06/04 01:31:56;;;;;;;3.67;1.80;;;;;;;20.37;45.45;102359.66;5000058;28;20113;-87
2023/06/04 01:34:22;;;;;;;2.22;1.77;;;;;;;20.63;45.57;102399.53;4998863;28;20088;-87
2023/06/04 01:36:47;;;;;;;2.88;1.60;;;;;;;20.46;45.46;102378.16;4986754;28;20042;-86
2023/06/04 01:39:13;;;;;;;2.70;1.80;;;;;;;20.84;45.39;102431.06;4983042;28;20046;-87
2023/06/04 01:41:39;;;;;;;2.13;1.52;;;;;;;20.72;45.24;102414.53;5000511;28;20057;-88
2023/06/04 01:44:04;;;;;;;2.83;1.90;;;;;;;20.63;45.47;102400.34;4983740;28;20088;-88
2023/06/04 01:46:30;;;;;;;2.17;1.42;;;;;;;20.57;45.78;102385.06;4990309;28;21896;-88
2023/06/04 01:48:56;;;;;;;3.67;1.80;;;;;;;20.78;45.66;102417.41;5006428;28;20057;-88
2023/06/04 01:51:22;;;;;;;2.47;1.42;;;;;;;20.63;45.69;102396.88;5019830;28;20038;-88
2023/06/04 01:53:47;;;;;;;2.85;1.60;;;;;;;20.78;45.42;102420.06;5005446;28;20038;-86
2023/06/04 01:56:14;;;;;;;3.35;2.10;;;;;;;20.21;45.49;102337.31;5009079;28;20472;-85
2023/06/04 01:58:40;;;;;;;2.42;1.88;;;;;;;20.57;45.79;102389.53;4982891;28;20056;-86
2023/06/04 02:01:06;;;;;;;3.22;1.73;;;;;;;20.58;45.73;102397.31;4989190;28;20074;-87
2023/06/04 02:03:36;;;;;;;2.38;1.48;;;;;;;20.59;45.46;102395.50;5004315;28;20037;-87
2023/06/04 02:06:03;;;;;;;;;;;;;;;20.74;45.55;102425.81;5004930;28;20033;-86
2023/06/04 02:08:30;;;;;;;3.38;1.92;;;;;;;20.68;45.67;102419.31;5022054;28;19972;-88
2023/06/04 02:10:55;;;;;;;2.55;1.35;;;;;;;20.67;45.69;102407.06;4989288;28;20048;-87
2023/06/04 02:13:21;;;;;;;2.85;1.75;;;;;;;20.49;45.76;102383.19;5007071;28;20034;-87
2023/06/04 02:15:47;;;;;;;2.30;1.60;;;;;;;20.74;45.66;102424.00;4976348;28;20058;-88
2023/06/04 02:18:24;;;;;;;2.17;1.58;;;;;;;20.67;45.73;102415.00;5020527;28;20561;-88
2023/06/04 02:20:51;;;;;;;3.17;1.80;;;;;;;20.73;45.67;102418.84;5004663;28;20101;-87
2023/06/04 02:23:18;;;;;;;3.75;1.90;;;;;;;20.72;45.71;102425.97;4998952;28;20044;-87
2023/06/04 02:25:45;;;;;;;3.85;1.73;;;;;;;20.73;45.75;102424.16;5004953;28;20038;-87
2023/06/04 02:28:10;;;;;;;2.35;1.77;;;;;;;20.62;45.69;102409.28;5002666;28;20050;-87
2023/06/04 02:30:36;;;;;;;3.13;1.70;;;;;;;20.63;45.58;102403.00;5012924;28;20030;-87
2023/06/04 02:33:03;;;;;;;3.05;1.90;;;;;;;20.63;45.54;102410.94;4988481;28;20021;-87
2023/06/04 02:35:32;;;;;;;2.65;1.85;;;;;;;20.41;45.89;102377.75;5003890;28;20541;-86
2023/06/04 02:37:58;;;;;;;3.10;1.65;;;;;;;20.49;45.74;102388.47;5018491;28;20535;-87
2023/06/04 02:40:25;;;;;;;4.70;1.80;;;;;;;20.60;45.56;102411.25;4985289;28;20129;-86
2023/06/04 02:42:52;;;;;;;3.58;1.80;;;;;;;20.39;45.47;102377.06;5003599;28;20033;-87
2023/06/04 02:45:18;;;;;;;2.38;1.60;;;;;;;20.31;45.90;102369.03;4996174;28;20087;-86
2023/06/04 02:47:43;;;;;;;2.50;1.75;;;;;;;20.57;45.61;102414.19;4985428;28;20293;-87
2023/06/04 02:50:09;;;;;;;2.33;1.80;;;;;;;20.53;45.97;102410.19;5016827;28;20088;-87
2023/06/04 02:52:36;;;;;;;2.63;1.83;;;;;;;20.58;45.96;102409.72;5001672;28;20423;-86
2023/06/04 02:55:04;;;;;;;4.05;1.98;;;;;;;20.64;45.77;102417.06;4987675;28;20042;-86
2023/06/04 02:57:30;;;;;;;2.47;2.10;;;;;;;20.54;45.74;102401.25;4996782;28;20042;-86
2023/06/04 02:59:56;;;;;;;2.92;1.90;;;;;;;20.53;45.77;102402.22;4985853;28;20187;-86
2023/06/04 03:02:21;;;;;;;2.30;1.70;;;;;;;20.61;45.84;102414.72;5000295;28;20037;-86
2023/06/04 03:04:50;;;;;;;2.70;1.90;;;;;;;20.46;45.66;102398.50;4971329;28;20022;-86
2023/06/04 03:07:20;;;;;;;2.45;1.67;;;;;;;20.61;45.89;102425.31;5019462;28;20113;-87
2023/06/04 03:09:47;;;;;;;4.13;1.88;;;;;;;20.58;45.86;102417.66;4972430;28;20026;-86
2023/06/04 03:12:12;;;;;;;2.92;1.88;;;;;;;20.42;45.73;102397.94;4968020;28;20281;-86
2023/06/04 03:14:38;;;;;;;3.95;1.90;;;;;;;20.55;45.81;102420.63;4986194;28;20038;-87
2023/06/04 03:17:07;;;;;;;2.58;1.90;;;;;;;20.56;45.86;102419.63;5000966;28;20038;-86
2023/06/04 03:19:37;;;;;;;2.95;1.90;;;;;;;20.49;45.99;102406.16;4998680;28;20136;-87
2023/06/04 03:22:05;;;;;;;4.35;2.08;;;;;;;20.47;45.77;102408.94;4997058;28;20050;-86
2023/06/04 03:24:37;;;;;;;3.72;1.92;;;;;;;20.52;45.85;102406.69;4995865;28;20041;-86
2023/06/04 03:27:04;;;;;;;3.28;1.83;;;;;;;20.62;45.75;102424.34;5000922;28;20042;-86
2023/06/04 03:29:31;;;;;;;3.42;2.05;;;;;;;20.37;45.92;102396.69;5002584;28;20021;-86
2023/06/04 03:31:58;;;;;;;3.28;1.75;;;;;;;20.43;45.99;102396.13;4994492;28;20038;-86
2023/06/04 03:34:26;;;;;;;4.28;1.90;;;;;;;20.37;45.92;102388.75;4985692;28;20072;-86
2023/06/04 03:36:53;;;;;;;1.55;1.27;;;;;;;20.33;46.04;102376.81;5020738;28;20100;-87
2023/06/04 03:39:19;;;;;;;3.33;1.75;;;;;;;20.44;45.97;102395.16;5004373;28;20034;-87
2023/06/04 03:41:44;;;;;;;1.92;1.67;;;;;;;20.17;45.79;102358.91;5002557;28;20393;-86
2023/06/04 03:44:13;;;;;;;3.33;1.70;;;;;;;20.46;46.01;102403.78;4998911;28;20207;-86
2023/06/04 03:46:39;;;;;;;4.88;1.92;;;;;;;20.57;46.11;102414.19;4982304;28;20038;-86
2023/06/04 03:49:05;;;;;;;2.08;1.70;;;;;;;19.96;45.94;102329.19;4985291;28;20092;-87
2023/06/04 03:51:30;;;;;;;3.83;1.65;;;;;;;20.37;46.17;102384.31;5017555;28;20034;-87
2023/06/04 03:53:58;;;;;;;3.03;2.22;;;;;;;20.32;46.02;102375.16;4981543;28;20038;-87
2023/06/04 03:56:24;;;;;;;4.05;1.80;;;;;;;20.35;45.97;102382.78;5001815;28;20022;-87
2023/06/04 03:58:50;;;;;;;2.30;1.73;;;;;;;20.56;45.95;102409.03;5002572;28;20188;-88
2023/06/04 04:01:16;;;;;;;3.28;1.67;;;;;;;20.38;46.01;102385.13;4950676;28;1436258;-87
2023/06/04 04:03:43;;;;;;;2.40;1.90;;;;;;;20.40;45.96;102396.41;4967020;28;20042;-87
2023/06/04 04:06:10;;;;;;;3.35;1.63;;;;;;;20.26;46.11;102373.06;4954648;28;20065;-87
2023/06/04 04:08:37;;;;;;;3.60;1.73;;;;;;;20.14;46.19;102351.28;4987598;28;20037;-88
2023/06/04 04:11:02;;;;;;;2.78;1.80;;;;;;;20.51;45.99;102417.44;4970895;28;20096;-87
2023/06/04 04:13:28;;;;;;;1.95;1.52;;;;;;;20.50;46.09;102418.41;5002134;28;20037;-88
2023/06/04 04:15:54;;;;;;;2.80;1.95;;;;;;;20.37;46.14;102405.47;4999925;28;20042;-87
2023/06/04 04:18:20;;;;;;;2.75;1.60;;;;;;;20.23;46.08;102375.03;4970551;28;20040;-88
2023/06/04 04:20:46;;;;;;;2.67;1.70;;;;;;;20.09;46.03;102359.63;5020223;28;20038;-88
2023/06/04 04:23:13;;;;;;;2.65;1.80;;;;;;;20.32;46.08;102391.84;4971860;28;20037;-87
2023/06/04 04:25:43;;;;;;;4.53;1.73;;;;;;;20.37;46.01;102404.63;4972351;28;20033;-87
2023/06/04 04:28:11;;;;;;;2.83;1.85;;;;;;;20.45;46.15;102421.47;4985073;28;20042;-87
2023/06/04 04:30:39;;;;;;;2.88;1.70;;;;;;;20.36;45.97;102405.63;4986306;28;20061;-87
2023/06/04 04:33:06;;;;;;;2.45;1.70;;;;;;;20.38;46.18;102404.50;4984736;28;20029;-87
2023/06/04 04:35:37;;;;;;;4.47;1.75;;;;;;;20.46;46.17;102423.13;4972597;28;20033;-88
2023/06/04 04:38:05;;;;;;;2.97;1.80;;;;;;;20.09;46.22;102362.25;4963128;28;20038;-88
2023/06/04 04:40:41;;;;;;;3.35;2.00;;;;;;;20.47;46.24;102419.53;5009527;28;20037;-88
2023/06/04 04:43:10;;;;;;;3.00;1.80;;;;;;;20.48;46.16;102429.16;4976595;28;20045;-88
2023/06/04 04:45:37;;;;;;;3.92;2.20;;;;;;;20.06;45.96;102353.78;5012126;28;20037;-88
2023/06/04 04:48:05;;;;;;;2.83;1.70;;;;;;;20.11;46.05;102365.63;4997784;28;20139;-87
2023/06/04 04:50:32;;;;;;;3.22;1.52;;;;;;;20.22;46.22;102383.09;4956227;28;20940;-87
2023/06/04 04:52:59;;;;;;;2.65;1.70;;;;;;;20.18;46.17;102376.44;4945164;28;20038;-87
2023/06/04 04:55:25;;;;;;;3.03;1.92;;;;;;;20.26;46.28;102395.06;4983104;28;20048;-87
2023/06/04 04:57:52;;;;;;;2.42;1.75;;;;;;;20.16;46.13;102367.81;4984364;28;20068;-88
2023/06/04 05:00:19;;;;;;;3.08;1.98;;;;;;;20.15;46.23;102367.00;4967009;28;20074;-88
2023/06/04 05:02:48;;;;;;;2.42;1.80;;;;;;;20.08;46.19;102360.59;5001095;28;20041;-88
2023/06/04 05:05:14;;;;;;;3.67;2.22;;;;;;;20.08;46.19;102365.88;4951761;28;20109;-88
2023/06/04 05:07:41;;;;;;;4.10;1.88;;;;;;;20.08;46.21;102362.41;4951450;28;20034;-88
2023/06/04 05:10:08;;;;;;;3.63;1.92;;;;;;;20.49;46.22;102416.75;4951937;28;20030;-87
2023/06/04 05:12:34;;;;;;;2.88;1.80;;;;;;;20.18;46.16;102377.28;4949475;28;20058;-88
2023/06/04 05:15:03;;;;;;;3.08;1.80;;;;;;;20.05;46.02;102347.66;4950252;28;20524;-87
2023/06/04 05:17:29;;;;;;;2.95;1.63;;;;;;;20.13;45.87;102361.00;4967673;28;20037;-87
2023/06/04 05:20:11;;;;;;;3.78;2.10;;;;;;;20.25;45.97;102374.88;4983381;28;20034;-88
2023/06/04 05:22:40;;;;;;;2.75;1.65;;;;;;;20.36;46.13;102398.50;4983912;28;20084;-87
2023/06/04 05:25:08;;;;;;;3.40;2.10;;;;;;;20.26;45.92;102371.25;5011711;28;20246;-86
2023/06/04 05:27:35;;;;;;;3.05;1.83;;;;;;;20.25;45.72;102372.22;4967759;28;20049;-86
2023/06/04 05:30:05;;;;;;;4.07;2.05;;;;;;;20.51;45.95;102418.25;4952110;28;20408;-86
2023/06/04 05:32:32;;;;;;;;;;;;;;;20.54;46.06;102421.59;4966686;28;20039;-86
2023/06/04 05:34:59;;;;;;;2.15;1.60;;;;;;;20.57;46.10;102421.28;5000011;28;20009;-85
2023/06/04 05:37:29;;;;;;;2.67;1.58;;;;;;;20.42;45.99;102405.88;4996840;28;20030;-87
2023/06/04 05:39:56;;;;;;;4.05;2.10;;;;;;;20.52;45.98;102413.81;4967369;28;20069;-86
2023/06/04 05:42:23;;;;;;;1.73;1.50;;;;;;;20.34;45.56;102389.88;4995025;28;20035;-86
2023/06/04 05:44:49;;;;;;;4.00;1.80;;;;;;;20.48;46.06;102415.09;4984199;28;20050;-86
2023/06/04 05:47:16;;;;;;;2.85;1.77;;;;;;;20.50;46.12;102419.25;4966418;28;20102;-86
2023/06/04 05:49:42;;;;;;;3.42;2.03;;;;;;;20.46;45.96;102409.91;4978875;28;20069;-86
2023/06/04 05:52:09;;;;;;;3.65;1.95;;;;;;;20.51;45.77;102422.72;4965610;28;20058;-86
2023/06/04 05:54:36;;;;;;;1.92;1.60;;;;;;;20.51;45.95;102418.25;4996551;28;20295;-87
2023/06/04 05:57:03;;;;;;;2.33;1.50;;;;;;;20.36;45.74;102387.09;4969958;28;20624;-86
2023/06/04 05:59:29;;;;;;;3.05;1.73;;;;;;;20.52;45.84;102419.94;4998463;28;20117;-87
2023/06/04 06:01:56;;;;;;;2.15;1.52;;;;;;;20.10;45.79;102356.00;4998945;28;20042;-88
2023/06/04 06:04:22;;;;;;;3.13;1.70;;;;;;;20.44;45.94;102413.69;5016256;28;20129;-87
2023/06/04 06:06:48;;;;;;;2.78;2.10;;;;;;;20.50;45.83;102424.53;4986421;28;20698;-88
2023/06/04 06:09:16;;;;;;;2.45;1.77;;;;;;;20.50;45.89;102418.41;4984320;28;20021;-87
2023/06/04 06:11:42;;;;;;;4.05;2.47;;;;;;;20.64;45.83;102439.09;5002141;28;20038;-86
2023/06/04 06:14:08;;;;;;;2.22;1.58;;;;;;;20.63;45.85;102439.22;4983762;28;20121;-87
2023/06/04 06:16:34;;;;;;;2.45;1.60;;;;;;;20.60;45.76;102428.94;4969498;28;20037;-86
2023/06/04 06:19:01;;;;;;;3.42;1.65;;;;;;;20.60;45.83;102421.84;4968945;28;20120;-87
2023/06/04 06:21:27;;;;;;;2.05;1.60;;;;;;;20.41;45.73;102392.81;4986251;28;20395;-87
2023/06/04 06:23:54;;;;;;;3.30;1.65;;;;;;;20.55;45.64;102415.31;5000089;28;20559;-87
2023/06/04 06:26:20;;;;;;;3.58;2.10;;;;;;;20.67;45.64;102430.88;5003243;28;20056;-88
2023/06/04 06:28:49;;;;;;;2.72;1.85;;;;;;;20.61;45.79;102422.66;5005883;28;20059;-88
2023/06/04 06:31:15;;;;;;;3.42;1.83;;;;;;;20.71;45.60;102439.34;4984074;28;20030;-86
2023/06/04 06:33:41;;;;;;;3.47;1.88;;;;;;;20.59;45.52;102425.47;4971515;28;20060;-85
2023/06/04 06:36:13;;;;;;;2.40;1.63;;;;;;;20.65;45.65;102432.00;4985367;28;20046;-86
2023/06/04 06:38:40;;;;;;;2.20;1.42;;;;;;;20.62;45.54;102432.28;5018008;28;20044;-86
2023/06/04 06:41:06;;;;;;;2.90;1.77;;;;;;;20.75;45.39;102441.56;5004996;28;20081;-87
2023/06/04 06:43:31;;;;;;;2.70;1.60;;;;;;;20.83;45.33;102445.28;5005207;28;20041;-88
2023/06/04 06:45:57;;;;;;;3.20;1.80;;;;;;;20.72;45.56;102431.25;4989707;28;20042;-86
2023/06/04 06:48:23;;;;;;;3.05;2.03;;;;;;;20.70;45.61;102421.78;4987864;28;20084;-85
2023/06/04 06:50:48;;;;;;;3.20;1.70;;;;;;;20.88;45.48;102456.28;5001063;28;20037;-85
2023/06/04 06:53:14;;;;;;;2.85;1.67;;;;;;;20.89;45.44;102448.16;5001123;28;20050;-85
2023/06/04 06:55:39;;;;;;;2.90;1.80;;;;;;;20.80;45.48;102425.22;5019022;28;20049;-86
2023/06/04 06:58:05;;;;;;;2.67;1.58;;;;;;;20.96;45.32;102443.94;4987077;28;20046;-88
2023/06/04 07:00:31;;;;;;;2.38;1.65;;;;;;;20.85;45.28;102419.50;5002915;28;20058;-87
2023/06/04 07:02:56;;;;;;;2.65;1.77;;;;;;;21.06;45.18;102446.53;5000201;28;20053;-86
2023/06/04 07:05:22;;;;;;;3.05;1.88;;;;;;;20.52;44.98;102361.72;4987990;28;20128;-86
2023/06/04 07:07:47;;;;;;;2.67;1.73;;;;;;;20.98;44.97;102439.31;4997983;28;20037;-85
2023/06/04 07:10:13;;;;;;;3.85;1.60;;;;;;;21.00;44.94;102434.72;4996663;28;20048;-87
2023/06/04 07:12:39;;;;;;;2.33;1.65;;;;;;;21.17;45.18;102461.38;5012645;28;20049;-87
2023/06/04 07:15:08;;;;;;;2.30;1.63;;;;;;;21.10;44.91;102442.63;5000718;28;20037;-86
2023/06/04 07:17:33;;;;;;;2.08;1.77;;;;;;;21.08;45.01;102439.28;4998932;28;20624;-87
2023/06/04 07:20:00;;;;;;;3.00;1.65;;;;;;;21.19;45.06;102448.84;5018839;28;20077;-87
2023/06/04 07:22:25;;;;;;;2.08;1.52;;;;;;;21.20;45.04;102446.03;4986018;28;20532;-87
2023/06/04 07:24:51;;;;;;;3.50;2.08;;;;;;;21.05;45.02;102418.41;4995451;28;20042;-85
2023/06/04 07:27:17;;;;;;;3.10;1.40;;;;;;;21.27;44.97;102452.44;5000797;28;20042;-86
2023/06/04 07:29:47;;;;;;;3.60;1.55;;;;;;;21.31;44.55;102453.78;5012079;28;20117;-85
2023/06/04 07:32:12;;;;;;;3.78;1.75;;;;;;;21.34;44.99;102456.13;5013520;28;20045;-86
2023/06/04 07:34:39;;;;;;;2.88;1.88;;;;;;;21.40;45.04;102465.31;5011412;28;20043;-86
2023/06/04 07:37:05;;;;;;;2.63;2.03;;;;;;;21.42;44.83;102466.84;5015038;28;20042;-86
2023/06/04 07:39:30;;;;;;;3.80;1.90;;;;;;;21.36;44.86;102453.31;5020966;28;20597;-86
2023/06/04 07:41:56;;;;;;;1.95;1.40;;;;;;;21.40;44.77;102452.06;4999243;28;20049;-86
2023/06/04 07:44:22;;;;;;;2.05;1.70;;;;;;;21.48;44.94;102464.56;5003975;28;20034;-86
2023/06/04 07:46:48;;;;;;;1.40;1.27;;;;;;;21.38;44.63;102454.03;5004876;28;20168;-86
2023/06/04 07:49:13;;;;;;;2.85;1.83;;;;;;;21.35;44.83;102443.72;5003219;28;20041;-87
2023/06/04 07:51:39;;;;;;;4.70;1.90;;;;;;;21.42;44.51;102448.28;4999784;28;20045;-86
2023/06/04 07:54:05;;;;;;;3.35;1.80;;;;;;;21.54;44.37;102467.41;4986245;28;20042;-86
2023/06/04 07:56:30;;;;;;;3.38;1.70;;;;;;;21.46;44.82;102445.31;4981779;28;20114;-87
2023/06/04 07:58:56;;;;;;;2.20;1.35;;;;;;;21.54;44.41;102459.47;5002152;28;20685;-87
2023/06/04 08:01:23;;;;;;;3.10;1.58;;;;;;;21.58;44.62;102458.19;5004437;28;20137;-87
2023/06/04 08:03:49;;;;;;;3.95;1.50;;;;;;;21.64;44.50;102476.16;5003966;28;20026;-88
2023/06/04 08:06:15;;;;;;;3.15;1.70;;;;;;;21.48;44.25;102441.53;5015307;28;20099;-86
2023/06/04 08:08:45;;;;;;;2.88;1.63;;;;;;;21.68;44.39;102466.91;4984963;28;20034;-85
2023/06/04 08:11:11;;;;;;;3.55;1.90;;;;;;;21.67;44.45;102459.09;5002990;28;20109;-86
2023/06/04 08:13:37;;;;;;;2.70;1.52;;;;;;;21.52;44.42;102442.88;4998110;28;20033;-86
2023/06/04 08:16:02;;;;;;;3.35;1.58;;;;;;;21.64;44.14;102459.41;5002701;28;20100;-86
2023/06/04 08:18:31;;;;;;;4.40;1.60;;;;;;;21.45;44.57;102431.25;4968640;28;20034;-86
2023/06/04 08:20:56;;;;;;;2.20;1.58;;;;;;;21.76;44.50;102483.88;5019980;28;20040;-86
2023/06/04 08:23:22;;;;;;;2.40;1.60;;;;;;;21.75;44.07;102467.13;5018163;28;20041;-85
2023/06/04 08:25:47;;;;;;;2.67;1.35;;;;;;;21.67;44.27;102457.28;5001345;28;20038;-88
2023/06/04 08:28:15;;;;;;;2.65;1.60;;;;;;;21.73;44.09;102465.63;5005699;28;20037;-85
2023/06/04 08:30:42;;;;;;;3.13;1.42;;;;;;;21.85;44.26;102478.47;5002101;28;20061;-84
2023/06/04 08:33:07;;;;;;;2.72;1.70;;;;;;;21.75;44.29;102464.47;5019716;28;20053;-85
2023/06/04 08:35:33;;;;;;;3.22;1.80;;;;;;;21.84;44.56;102475.97;4997868;28;20038;-85
2023/06/04 08:37:58;;;;;;;2.45;1.73;;;;;;;21.76;44.25;102466.16;4999996;28;20041;-84
2023/06/04 08:40:24;;;;;;;3.60;2.00;;;;;;;21.74;44.04;102456.69;5018097;28;20038;-85
2023/06/04 08:42:51;;;;;;;2.38;1.70;;;;;;;21.63;44.40;102436.53;5000342;28;20042;-84
2023/06/04 08:45:20;;;;;;;4.47;1.85;;;;;;;21.89;44.39;102474.53;5016463;28;20057;-84
2023/06/04 08:47:50;;;;;;;4.22;2.40;;;;;;;21.75;44.39;102448.56;5013639;28;20093;-84
2023/06/04 08:50:22;;;;;;;2.05;1.60;;;;;;;21.78;44.52;102464.16;5016770;28;20034;-84
2023/06/04 08:52:53;;;;;;;3.30;2.00;;;;;;;21.74;44.24;102457.53;5018332;28;20642;-85
2023/06/04 08:55:19;;;;;;;3.53;1.88;;;;;;;21.92;44.17;102478.72;4998726;28;20042;-84
2023/06/04 08:57:45;;;;;;;3.50;1.80;;;;;;;21.74;44.35;102451.38;5001474;28;20090;-84
2023/06/04 09:00:12;;;;;;;3.00;1.98;;;;;;;21.88;44.51;102467.56;5014370;28;20045;-85
2023/06/04 09:02:38;;;;;;;3.13;1.70;;;;;;;21.89;44.36;102476.34;4966775;28;20133;-84
2023/06/04 09:05:06;;;;;;;3.10;1.70;;;;;;;21.89;44.25;102474.53;4982132;28;20050;-84
2023/06/04 09:07:38;;;;;;;8.35;2.10;;;;;;;21.80;44.50;102454.25;5013033;28;20041;-84
2023/06/04 09:10:06;;;;;;;3.40;1.67;;;;;;;21.70;44.43;102451.66;4999342;28;20037;-86
2023/06/04 09:12:33;;;;;;;3.88;2.20;;;;;;;21.82;44.20;102459.38;5019158;28;20045;-87
2023/06/04 09:14:59;;;;;;;3.45;1.70;;;;;;;21.86;44.21;102466.03;4996439;28;20049;-87
2023/06/04 09:17:25;;;;;;;2.70;1.65;;;;;;;21.79;44.38;102454.41;4984227;28;20101;-87
2023/06/04 09:19:51;;;;;;;5.10;2.17;;;;;;;21.76;44.45;102446.75;5014144;28;20034;-89
2023/06/04 09:22:17;;;;;;;3.20;2.15;;;;;;;21.91;44.20;102475.22;4987925;28;20106;-87
2023/06/04 09:24:55;;;;;;;2.50;1.67;;;;;;;21.80;44.39;102462.19;5001179;28;20125;-88
2023/06/04 09:27:25;;;;;;;3.13;1.58;;;;;;;21.88;44.09;102458.75;4985969;28;20120;-89
2023/06/04 09:29:52;;;;;;;2.80;1.95;;;;;;;21.95;44.10;102475.75;4987833;28;20501;-88
2023/06/04 09:32:35;;;;;;;2.08;1.90;;;;;;;21.93;44.25;102478.56;5017078;28;21692;-89
2023/06/04 09:35:10;;;;;;;2.00;1.60;;;;;;;21.95;44.43;102484.53;4985167;28;20030;-88
2023/06/04 09:37:35;;;;;;;4.97;1.77;;;;;;;21.83;44.40;102469.84;5021819;28;20596;-87
2023/06/04 09:40:05;;;;;;;4.22;1.75;;;;;;;21.81;44.18;102458.56;4984862;28;20061;-86
2023/06/04 09:42:30;;;;;;;3.78;1.80;;;;;;;21.88;44.36;102474.69;4997623;28;20045;-87
2023/06/04 09:44:58;;;;;;;4.65;2.00;;;;;;;21.82;44.12;102473.47;5018079;28;20034;-87
2023/06/04 09:47:23;;;;;;;3.03;1.67;;;;;;;21.84;44.21;102473.31;4999658;28;20053;-87
2023/06/04 09:49:50;;;;;;;2.40;1.88;;;;;;;21.96;44.14;102490.66;4979853;28;20054;-87
2023/06/04 09:52:17;;;;;;;3.15;1.83;;;;;;;21.86;44.34;102480.13;4991335;28;20291;-87
2023/06/04 09:54:42;;;;;;;2.03;1.70;;;;;;;21.77;44.10;102457.22;4996058;28;20042;-87
2023/06/04 09:57:16;;;;;;;1.80;1.60;;;;;;;21.52;44.32;102429.63;4995289;28;20054;-86
2023/06/04 09:59:44;;;;;;;3.28;1.70;;;;;;;21.83;44.06;102480.44;5003595;28;20042;-89
2023/06/04 10:02:11;;;;;;;3.60;1.85;;;;;;;21.79;44.39;102468.50;4991943;28;20026;-89
2023/06/04 10:04:41;;;;;;;2.53;1.75;;;;;;;21.85;44.40;102483.78;4984494;28;20698;-89
2023/06/04 10:07:08;;;;;;;2.55;1.60;;;;;;;21.93;44.34;102493.63;5004057;28;20584;-87
2023/06/04 10:09:42;;;;;;;3.10;1.85;;;;;;;21.76;44.34;102467.97;4992587;28;20037;-88
2023/06/04 10:12:09;;;;;;;3.67;1.80;;;;;;;21.85;44.28;102486.44;4992353;28;20114;-87
2023/06/04 10:14:41;;;;;;;3.70;1.65;;;;;;;21.67;44.31;102445.84;5001331;28;20041;-87
2023/06/04 10:17:09;;;;;;;4.15;1.75;;;;;;;21.66;44.10;102457.44;5002953;28;20049;-88
2023/06/04 10:19:37;;;;;;;7.97;2.08;;;;;;;21.63;44.19;102453.28;5004505;28;20066;-87
2023/06/04 10:22:04;;;;;;;3.25;1.70;;;;;;;21.80;44.41;102474.63;5008973;28;20038;-88
2023/06/04 10:24:31;;;;;;;3.30;1.67;;;;;;;21.63;44.13;102444.47;5005909;28;20137;-88
2023/06/04 10:27:01;;;;;;;2.25;1.70;;;;;;;21.57;44.05;102445.94;4991251;28;20038;-88
2023/06/04 10:29:29;;;;;;;2.50;1.73;;;;;;;21.79;44.30;102480.91;4991604;28;20041;-87
2023/06/04 10:31:55;;;;;;;4.55;1.80;;;;;;;21.75;44.13;102472.44;5002800;28;20134;-88
2023/06/04 10:34:21;;;;;;;2.08;1.65;;;;;;;21.90;43.96;102501.88;5014901;28;20693;-88
2023/06/04 10:36:47;;;;;;;2.80;1.70;;;;;;;21.69;44.31;102468.56;5019892;28;20540;-87
2023/06/04 10:39:13;;;;;;;3.65;1.90;;;;;;;21.77;44.30;102481.06;5003305;28;20037;-88
2023/06/04 10:41:38;;;;;;;7.32;2.40;;;;;;;21.77;44.01;102481.06;5003255;28;20034;-88
2023/06/04 10:44:04;;;;;;;3.55;1.52;;;;;;;21.71;44.42;102471.06;5008512;28;20048;-88
2023/06/04 10:46:42;;;;;;;3.30;1.52;;;;;;;21.70;44.15;102472.88;4989031;28;20049;-88
2023/06/04 10:49:15;;;;;;;2.38;1.63;;;;;;;21.58;44.04;102447.59;4989779;28;20084;-86
2023/06/04 10:51:40;;;;;;;3.17;1.70;;;;;;;21.88;44.17;102494.06;5000623;28;20042;-88
2023/06/04 10:54:06;;;;;;;1.60;1.50;;;;;;;21.84;44.31;102497.19;4986892;28;20092;-87
2023/06/04 10:56:35;;;;;;;2.58;1.80;;;;;;;21.60;44.15;102463.34;5001821;28;20038;-87
2023/06/04 10:59:13;;;;;;;4.43;2.35;;;;;;;21.82;44.22;102504.47;5003064;28;20038;-86
2023/06/04 11:01:42;;;;;;;3.97;1.92;;;;;;;21.59;44.37;102467.81;4950134;28;20055;-86
2023/06/04 11:04:38;;;;;;;1.90;1.63;;;;;;;21.87;44.15;102507.50;4998065;28;20055;-88
2023/06/04 11:07:08;;;;;;;2.90;1.90;;;;;;;21.87;44.13;102504.84;4989920;28;20058;-89
2023/06/04 11:09:50;;;;;;;2.85;1.77;;;;;;;21.86;44.20;102503.19;4986040;28;20034;-88
2023/06/04 11:12:16;;;;;;;3.45;1.80;;;;;;;21.67;44.29;102475.84;4973739;28;20041;-89
2023/06/04 11:14:55;;;;;;;2.25;1.90;;;;;;;21.68;44.13;102466.06;4988098;28;20118;-88
2023/06/04 11:17:21;;;;;;;3.65;1.73;;;;;;;21.86;44.23;102503.19;4993998;28;20041;-89
2023/06/04 11:19:48;;;;;;;3.65;1.80;;;;;;;21.86;44.18;102498.69;4954937;28;20034;-89
2023/06/04 11:22:14;;;;;;;2.80;1.60;;;;;;;21.72;44.36;102478.03;4986344;28;20041;-88
2023/06/04 11:24:40;;;;;;;2.55;1.52;;;;;;;21.66;44.17;102466.22;4975315;28;20057;-89
2023/06/04 11:27:06;;;;;;;1.85;1.70;;;;;;;21.67;44.30;102459.09;4975245;28;20038;-87